Time;durP1;ratioP1;P1;durP2;ratioP2;P2;SDS_P1;SDS_P2;PMS_P1;PMS_P2;Temp;Humidity;BMP_temperature;BMP_pressure;BME280_temperature;BME280_humidity;BME280_pressure;Samples;Min_cycle;Max_cycle;Signal;HPM_P1;HPM_P2
2023/10/12 00:01:01;;;;;;;7.95;7.57;;;;;;;;;;4164186;28;20049;-68
2023/10/12 00:03:05;;;;;;;8.40;7.90;;;;;;;;;;4158548;28;20560;-69
2023/10/12 00:05:10;;;;;;;9.48;8.98;;;;;;;;;;4141449;28;20042;-68
2023/10/12 00:07:15;;;;;;;8.25;7.88;;;;;;;;;;4147757;28;20453;-69
2023/10/12 00:09:19;;;;;;;9.98;9.38;;;;;;;;;;4147803;28;20045;-68
2023/10/12 00:11:21;;;;;;;9.60;8.88;;;;;;;;;;4147640;28;20156;-68
2023/10/12 00:13:28;;;;;;;9.17;8.90;;;;;;;;;;4147576;28;20042;-69
2023/10/12 00:15:37;;;;;;;10.35;9.95;;;;;;;;;;4147884;28;20289;-69
2023/10/12 00:17:38;;;;;;;10.10;9.75;;;;;;;;;;4146303;28;20080;-68
2023/10/12 00:19:40;;;;;;;8.57;8.27;;;;;;;;;;4146478;28;20050;-68
2023/10/12 00:21:43;;;;;;;10.50;9.87;;;;;;;;;;4146280;28;20529;-68
2023/10/12 00:23:47;;;;;;;9.98;9.63;;;;;;;;;;4147603;28;20058;-69
2023/10/12 00:25:58;;;;;;;9.95;9.68;;;;;;;;;;4147559;28;20038;-68
2023/10/12 00:28:01;;;;;;;11.15;10.52;;;;;;;;;;4147568;28;20096;-68
2023/10/12 00:30:04;;;;;;;10.85;9.30;;;;;;;;;;4147731;28;20038;-68
2023/10/12 00:32:09;;;;;;;9.85;9.65;;;;;;;;;;4160013;28;20048;-68
2023/10/12 00:34:12;;;;;;;8.70;8.40;;;;;;;;;;4152158;28;20548;-68
2023/10/12 00:36:21;;;;;;;9.25;9.02;;;;;;;;;;4147528;28;20034;-68
2023/10/12 00:38:28;;;;;;;9.02;8.75;;;;;;;;;;4147552;28;20406;-68
2023/10/12 00:40:30;;;;;;;9.70;9.40;;;;;;;;;;4147471;28;20149;-68
2023/10/12 00:42:35;;;;;;;10.05;9.32;;;;;;;;;;4147439;28;20449;-68
2023/10/12 00:44:40;;;;;;;8.63;8.32;;;;;;;;;;4147545;28;20446;-68
2023/10/12 00:47:12;;;;;;;12.32;11.55;;;;;;;;;;4141445;28;20457;-68
2023/10/12 00:49:16;;;;;;;9.60;9.13;;;;;;;;;;4131196;28;20258;-67
2023/10/12 00:51:18;;;;;;;9.73;9.43;;;;;;;;;;4131253;28;20042;-68
2023/10/12 00:53:30;;;;;;;9.82;9.63;;;;;;;;;;4144336;28;20046;-69
2023/10/12 00:55:36;;;;;;;10.32;9.68;;;;;;;;;;4147454;28;20046;-68
2023/10/12 00:57:37;;;;;;;9.60;9.30;;;;;;;;;;4146483;28;20490;-68
2023/10/12 00:59:39;;;;;;;11.63;11.10;;;;;;;;;;4147260;28;20034;-69
2023/10/12 01:01:41;;;;;;;9.55;9.25;;;;;;;;;;4147594;28;20045;-63
2023/10/12 01:03:45;;;;;;;10.43;10.07;;;;;;;;;;4143319;28;20427;-64
2023/10/12 01:06:05;;;;;;;10.82;10.52;;;;;;;;;;4131553;28;20070;-63
2023/10/12 01:08:07;;;;;;;11.60;11.07;;;;;;;;;;4147190;28;20433;-64
2023/10/12 01:10:10;;;;;;;11.67;11.20;;;;;;;;;;4142903;28;20045;-63
2023/10/12 01:12:15;;;;;;;11.25;10.80;;;;;;;;;;4132434;28;20468;-63
2023/10/12 01:14:17;;;;;;;11.82;11.63;;;;;;;;;;4131039;28;20100;-63
2023/10/12 01:16:29;;;;;;;10.73;10.38;;;;;;;;;;4130929;28;20042;-63
2023/10/12 01:18:31;;;;;;;11.38;11.18;;;;;;;;;;4131017;28;20042;-64
2023/10/12 01:20:39;;;;;;;10.82;10.32;;;;;;;;;;4130979;28;20046;-64
2023/10/12 01:22:41;;;;;;;10.88;10.68;;;;;;;;;;4131146;28;20055;-64
2023/10/12 01:24:57;;;;;;;;;;;;;;;;;;4147421;28;20093;-63
2023/10/12 01:26:59;;;;;;;9.63;9.35;;;;;;;;;;4133973;28;20004;-63
2023/10/12 01:29:02;;;;;;;10.20;9.60;;;;;;;;;;4134030;28;20092;-64
2023/10/12 01:31:05;;;;;;;9.70;9.45;;;;;;;;;;4154073;28;20068;-63
2023/10/12 01:33:07;;;;;;;9.98;9.52;;;;;;;;;;4166269;28;20043;-63
2023/10/12 01:35:11;;;;;;;10.65;10.35;;;;;;;;;;4166247;28;20038;-63
2023/10/12 01:39:28;;;;;;;10.27;9.98;;;;;;;;;;4166114;28;20041;-64
2023/10/12 01:41:32;;;;;;;11.15;10.63;;;;;;;;;;4166211;28;20428;-64
2023/10/12 01:43:35;;;;;;;10.60;10.32;;;;;;;;;;4166127;28;20490;-63
2023/10/12 01:46:00;;;;;;;10.77;10.23;;;;;;;;;;4166173;28;20042;-63
2023/10/12 01:48:22;;;;;;;10.38;10.10;;;;;;;;;;4150103;28;20046;-63
2023/10/12 01:50:25;;;;;;;12.30;11.70;;;;;;;;;;4166196;28;20868;-63
2023/10/12 01:52:26;;;;;;;11.93;11.40;;;;;;;;;;4166076;28;20043;-64
2023/10/12 01:54:28;;;;;;;13.23;12.75;;;;;;;;;;4166325;28;20092;-64
2023/10/12 01:56:31;;;;;;;12.95;12.02;;;;;;;;;;4152785;28;20030;-63
2023/10/12 01:58:35;;;;;;;12.65;12.25;;;;;;;;;;4149639;28;20449;-63
2023/10/12 02:00:51;;;;;;;13.30;13.00;;;;;;;;;;4149479;28;20502;-63
2023/10/12 02:03:15;;;;;;;14.85;14.35;;;;;;;;;;4149265;28;20050;-63
2023/10/12 02:05:24;;;;;;;13.77;13.48;;;;;;;;;;4149588;28;20042;-64
2023/10/12 02:07:27;;;;;;;13.23;12.70;;;;;;;;;;4149534;28;20057;-64
2023/10/12 02:09:29;;;;;;;14.95;14.55;;;;;;;;;;4149342;28;20046;-63
2023/10/12 02:11:43;;;;;;;13.38;12.98;;;;;;;;;;4149444;28;20045;-64
2023/10/12 02:13:54;;;;;;;15.25;14.73;;;;;;;;;;4149668;28;20049;-63
2023/10/12 02:15:55;;;;;;;13.57;12.90;;;;;;;;;;4148132;28;20066;-63
2023/10/12 02:17:59;;;;;;;13.93;13.15;;;;;;;;;;4149587;28;20192;-64
2023/10/12 02:20:00;;;;;;;13.40;12.60;;;;;;;;;;4149338;28;20042;-63
2023/10/12 02:22:03;;;;;;;14.05;13.43;;;;;;;;;;4149281;28;20046;-63
2023/10/12 02:26:32;;;;;;;13.63;12.82;;;;;;;;;;4149329;28;20068;-63
2023/10/12 02:28:37;;;;;;;11.50;11.15;;;;;;;;;;4149174;28;20037;-63
2023/10/12 02:30:40;;;;;;;12.38;12.07;;;;;;;;;;4150074;28;20092;-64
2023/10/12 02:32:47;;;;;;;13.23;12.63;;;;;;;;;;4165593;28;20095;-63
2023/10/12 02:34:55;;;;;;;13.65;13.23;;;;;;;;;;4165473;28;20040;-63
2023/10/12 02:37:16;;;;;;;11.68;11.38;;;;;;;;;;4165106;28;20033;-64
2023/10/12 02:39:21;;;;;;;12.75;12.48;;;;;;;;;;4165172;28;20045;-63
2023/10/12 02:41:24;;;;;;;12.85;12.35;;;;;;;;;;4165351;28;20485;-63
2023/10/12 02:43:27;;;;;;;11.50;11.07;;;;;;;;;;4165267;28;20095;-64
2023/10/12 02:45:29;;;;;;;13.20;12.40;;;;;;;;;;4144878;28;20073;-64
2023/10/12 02:47:31;;;;;;;12.95;12.50;;;;;;;;;;4145198;28;20108;-64
2023/10/12 02:49:39;;;;;;;12.90;12.57;;;;;;;;;;4148752;28;20046;-63
2023/10/12 02:51:40;;;;;;;13.68;13.02;;;;;;;;;;4148760;28;20042;-63
2023/10/12 02:53:42;;;;;;;12.45;12.20;;;;;;;;;;4148767;28;20046;-63
2023/10/12 02:55:48;;;;;;;13.25;12.77;;;;;;;;;;4148753;28;20387;-63
2023/10/12 02:57:54;;;;;;;11.88;11.40;;;;;;;;;;4148719;28;20042;-63
2023/10/12 02:59:57;;;;;;;13.05;12.45;;;;;;;;;;4148637;28;20068;-63
2023/10/12 03:02:18;;;;;;;12.45;12.13;;;;;;;;;;4148583;28;20073;-64
2023/10/12 03:04:20;;;;;;;12.98;12.57;;;;;;;;;;4148444;28;20042;-64
2023/10/12 03:06:23;;;;;;;10.18;9.77;;;;;;;;;;4148632;28;20502;-63
2023/10/12 03:08:30;;;;;;;13.02;12.15;;;;;;;;;;4148492;28;20049;-63
2023/10/12 03:10:32;;;;;;;13.30;12.60;;;;;;;;;;4148585;28;20072;-63
2023/10/12 03:12:42;;;;;;;13.90;13.50;;;;;;;;;;4148543;28;20034;-64
2023/10/12 03:14:44;;;;;;;13.20;12.82;;;;;;;;;;4148501;28;20293;-63
2023/10/12 03:16:47;;;;;;;15.20;14.32;;;;;;;;;;4148558;28;20049;-63
2023/10/12 03:19:00;;;;;;;13.07;12.68;;;;;;;;;;4148374;28;20498;-64
2023/10/12 03:21:05;;;;;;;15.13;14.32;;;;;;;;;;4148407;28;20034;-64
2023/10/12 03:23:14;;;;;;;13.32;13.02;;;;;;;;;;4148207;28;20050;-63
2023/10/12 03:25:37;;;;;;;14.65;14.13;;;;;;;;;;4148362;28;20506;-64
2023/10/12 03:27:40;;;;;;;14.50;14.00;;;;;;;;;;4148512;28;20042;-64
2023/10/12 03:29:51;;;;;;;15.20;14.45;;;;;;;;;;4148204;28;20041;-63
2023/10/12 03:31:53;;;;;;;13.85;13.35;;;;;;;;;;4159032;28;20052;-63
2023/10/12 03:33:55;;;;;;;13.40;12.85;;;;;;;;;;4164386;28;20425;-64
2023/10/12 03:38:19;;;;;;;12.80;12.35;;;;;;;;;;4164613;28;20068;-63
2023/10/12 03:42:43;;;;;;;13.43;13.02;;;;;;;;;;4147999;28;20052;-64
2023/10/12 03:46:56;;;;;;;14.13;13.30;;;;;;;;;;4147751;28;20046;-63
2023/10/12 03:49:17;;;;;;;12.60;12.30;;;;;;;;;;4147802;28;20648;-63
2023/10/12 03:53:27;;;;;;;11.65;11.45;;;;;;;;;;4147868;28;20042;-63
2023/10/12 03:55:29;;;;;;;14.20;13.85;;;;;;;;;;4147803;28;20104;-63
2023/10/12 03:59:44;;;;;;;14.18;13.52;;;;;;;;;;4147841;28;20072;-63
2023/10/12 04:01:46;;;;;;;13.23;12.82;;;;;;;;;;4147968;28;20100;-63
2023/10/12 04:03:58;;;;;;;14.95;14.20;;;;;;;;;;4147665;28;20054;-64
2023/10/12 04:06:05;;;;;;;10.75;10.55;;;;;;;;;;4147678;28;20131;-64
2023/10/12 04:10:23;;;;;;;15.10;14.57;;;;;;;;;;4147675;28;20049;-63
2023/10/12 04:16:40;;;;;;;53.72;19.50;;;;;;;;;;4147630;28;20038;-64
2023/10/12 04:19:03;;;;;;;21.77;19.60;;;;;;;;;;4147833;28;20379;-64
2023/10/12 04:21:04;;;;;;;21.60;19.58;;;;;;;;;;4147561;28;20046;-65
2023/10/12 04:27:41;;;;;;;19.67;18.95;;;;;;;;;;4147611;28;20073;-64
2023/10/12 04:29:48;;;;;;;24.48;22.83;;;;;;;;;;4143958;28;20105;-64
2023/10/12 04:31:56;;;;;;;23.20;21.80;;;;;;;;;;4146237;28;20084;-63
2023/10/12 04:40:34;;;;;;;16.88;16.27;;;;;;;;;;4146483;28;20708;-63
2023/10/12 04:42:44;;;;;;;16.35;15.88;;;;;;;;;;4145356;28;20455;-63
2023/10/12 04:47:20;;;;;;;17.67;17.08;;;;;;;;;;4116315;28;20054;-63
2023/10/12 04:51:30;;;;;;;16.20;15.50;;;;;;;;;;4147164;28;20045;-63
2023/10/12 04:55:58;;;;;;;16.13;15.55;;;;;;;;;;4147153;28;20045;-63
2023/10/12 04:58:32;;;;;;;16.00;15.40;;;;;;;;;;4147164;28;20092;-65
2023/10/12 05:00:47;;;;;;;16.20;15.60;;;;;;;;;;4150498;28;20050;-63
2023/10/12 05:07:53;;;;;;;17.13;16.52;;;;;;;;;;4149012;28;20073;-65
2023/10/12 05:09:18;;;;;;;16.02;15.07;;;;;;;;;;4143032;28;20060;-64
2023/10/12 05:11:23;;;;;;;15.23;14.63;;;;;;;;;;4149121;28;20075;-63
2023/10/12 05:13:25;;;;;;;16.75;16.20;;;;;;;;;;4143257;28;20045;-64
2023/10/12 05:15:36;;;;;;;17.33;16.53;;;;;;;;;;4150028;28;20053;-64
2023/10/12 05:17:38;;;;;;;17.13;16.30;;;;;;;;;;4146539;28;20712;-64
2023/10/12 05:19:41;;;;;;;17.00;15.97;;;;;;;;;;4149922;28;20065;-65
2023/10/12 05:21:43;;;;;;;15.57;14.93;;;;;;;;;;4150033;28;20048;-64
2023/10/12 05:23:45;;;;;;;17.85;17.10;;;;;;;;;;4150194;28;20046;-64
2023/10/12 05:28:13;;;;;;;16.13;15.52;;;;;;;;;;4149972;28;20045;-64
2023/10/12 05:30:19;;;;;;;19.80;18.85;;;;;;;;;;4148509;28;20096;-65
2023/10/12 05:32:36;;;;;;;16.65;15.98;;;;;;;;;;4164558;28;20659;-64
2023/10/12 05:36:42;;;;;;;19.63;18.80;;;;;;;;;;4133883;28;20042;-64
2023/10/12 05:39:07;;;;;;;18.55;17.65;;;;;;;;;;4133604;28;20038;-64
2023/10/12 05:41:09;;;;;;;17.55;16.58;;;;;;;;;;4143705;28;20046;-63
2023/10/12 05:43:17;;;;;;;19.13;18.53;;;;;;;;;;4149607;28;20092;-63
2023/10/12 05:45:27;;;;;;;19.25;18.23;;;;;;;;;;4149672;28;20037;-64
2023/10/12 05:47:29;;;;;;;19.77;18.38;;;;;;;;;;4149413;28;20037;-65
2023/10/12 05:49:33;;;;;;;20.50;19.58;;;;;;;;;;4149503;28;20046;-65
2023/10/12 05:51:37;;;;;;;19.52;18.45;;;;;;;;;;4149582;28;20050;-64
2023/10/12 05:53:39;;;;;;;19.35;18.73;;;;;;;;;;4149762;28;20038;-64
2023/10/12 05:55:41;;;;;;;19.63;18.77;;;;;;;;;;4149685;28;20053;-64
2023/10/12 05:57:43;;;;;;;19.88;19.05;;;;;;;;;;4149469;28;20037;-64
2023/10/12 05:59:46;;;;;;;18.55;17.58;;;;;;;;;;4148200;28;20042;-64
2023/10/12 06:01:48;;;;;;;18.52;17.58;;;;;;;;;;4149555;28;20610;-64
2023/10/12 06:03:56;;;;;;;18.95;17.73;;;;;;;;;;4149150;28;20063;-64
2023/10/12 06:05:58;;;;;;;15.60;15.10;;;;;;;;;;4149467;28;20442;-65
2023/10/12 06:08:06;;;;;;;18.00;17.10;;;;;;;;;;4148031;28;20069;-64
2023/10/12 06:10:09;;;;;;;14.55;14.15;;;;;;;;;;4148651;28;20049;-64
2023/10/12 06:12:18;;;;;;;17.63;16.38;;;;;;;;;;4149188;28;20038;-64
2023/10/12 06:14:20;;;;;;;16.73;16.00;;;;;;;;;;4149242;28;20073;-65
2023/10/12 06:16:24;;;;;;;16.52;15.25;;;;;;;;;;4149392;28;20442;-64
2023/10/12 06:18:30;;;;;;;16.80;15.95;;;;;;;;;;4149423;28;20498;-64
2023/10/12 06:20:36;;;;;;;18.13;17.42;;;;;;;;;;4149178;28;20048;-64
2023/10/12 06:22:38;;;;;;;17.67;16.58;;;;;;;;;;4149258;28;20050;-64
2023/10/12 06:24:43;;;;;;;15.90;15.20;;;;;;;;;;4147812;28;20460;-64
2023/10/12 06:26:47;;;;;;;16.02;15.15;;;;;;;;;;4149042;28;20045;-64
2023/10/12 06:28:49;;;;;;;17.33;16.75;;;;;;;;;;4149126;28;20050;-64
2023/10/12 06:30:52;;;;;;;15.60;14.80;;;;;;;;;;4150139;28;20113;-64
2023/10/12 06:32:58;;;;;;;16.45;15.57;;;;;;;;;;4165239;28;20034;-64
2023/10/12 06:42:09;;;;;;;17.02;16.27;;;;;;;;;;4114480;28;20051;-64
2023/10/12 06:44:25;;;;;;;14.70;14.10;;;;;;;;;;4148699;28;20080;-64
2023/10/12 06:46:28;;;;;;;16.42;15.40;;;;;;;;;;4148492;28;20422;-64
2023/10/12 06:50:34;;;;;;;15.68;15.00;;;;;;;;;;4148787;28;19968;-64
2023/10/12 06:52:36;;;;;;;15.93;14.88;;;;;;;;;;4148727;28;20042;-64
2023/10/12 06:56:39;;;;;;;16.77;15.88;;;;;;;;;;4148524;28;20556;-65
2023/10/12 06:58:45;;;;;;;15.93;15.33;;;;;;;;;;4148553;28;20053;-65
2023/10/12 07:01:06;;;;;;;19.05;17.42;;;;;;;;;;4148333;28;20042;-64
2023/10/12 07:03:08;;;;;;;17.25;16.05;;;;;;;;;;4148147;28;20449;-64
2023/10/12 07:05:10;;;;;;;;;;;;;;;;;;4147480;28;20050;-64
2023/10/12 07:07:14;;;;;;;15.90;15.27;;;;;;;;;;4148604;28;20698;-64
2023/10/12 07:09:16;;;;;;;16.33;15.63;;;;;;;;;;4146972;28;20061;-64
2023/10/12 07:11:18;;;;;;;16.67;15.87;;;;;;;;;;4148290;28;20593;-64
2023/10/12 07:13:25;;;;;;;16.77;15.63;;;;;;;;;;4148301;28;20763;-64
2023/10/12 07:15:32;;;;;;;15.48;14.43;;;;;;;;;;4148321;28;20128;-64
2023/10/12 07:17:34;;;;;;;15.15;14.48;;;;;;;;;;4148306;28;20034;-64
2023/10/12 07:19:41;;;;;;;16.17;15.43;;;;;;;;;;4147082;28;20474;-64
2023/10/12 07:21:42;;;;;;;15.55;14.40;;;;;;;;;;4147736;28;20088;-63
2023/10/12 07:23:44;;;;;;;15.67;14.97;;;;;;;;;;4147473;28;20071;-64
2023/10/12 07:25:48;;;;;;;14.97;14.37;;;;;;;;;;4148226;28;20042;-63
2023/10/12 07:27:56;;;;;;;13.20;12.80;;;;;;;;;;4148160;28;20046;-64
2023/10/12 07:30:08;;;;;;;14.88;14.20;;;;;;;;;;4148048;28;20570;-64
2023/10/12 07:32:31;;;;;;;14.13;12.93;;;;;;;;;;4161143;28;20041;-64
2023/10/12 07:34:33;;;;;;;20.85;14.60;;;;;;;;;;4132038;28;20042;-64
2023/10/12 07:36:53;;;;;;;12.45;11.20;;;;;;;;;;4131971;28;20042;-63
2023/10/12 07:39:14;;;;;;;11.00;10.20;;;;;;;;;;4131571;28;20125;-64
2023/10/12 07:41:24;;;;;;;8.90;8.23;;;;;;;;;;4146494;28;20206;-64
2023/10/12 07:43:32;;;;;;;9.35;8.60;;;;;;;;;;4147918;28;20034;-64
2023/10/12 07:45:40;;;;;;;8.13;7.50;;;;;;;;;;4147853;28;20042;-65
2023/10/12 07:47:42;;;;;;;8.07;7.43;;;;;;;;;;4147914;28;20037;-64
2023/10/12 07:49:51;;;;;;;7.22;6.82;;;;;;;;;;4146445;28;20073;-64
2023/10/12 07:52:09;;;;;;;7.25;6.72;;;;;;;;;;4141625;28;20041;-64
2023/10/12 07:54:46;;;;;;;6.97;6.57;;;;;;;;;;4138883;28;20069;-64
2023/10/12 07:56:34;;;;;;;8.60;6.47;;;;;;;;;;4147646;28;20042;-65
2023/10/12 07:58:36;;;;;;;6.57;6.03;;;;;;;;;;4147684;28;20042;-64
2023/10/12 08:00:41;;;;;;;7.43;6.93;;;;;;;;;;4147562;28;20450;-64
2023/10/12 08:04:58;;;;;;;5.90;5.63;;;;;;;;;;4131528;28;20045;-64
2023/10/12 08:07:06;;;;;;;5.22;5.07;;;;;;;;;;4131587;28;20162;-63
2023/10/12 08:11:31;;;;;;;5.40;5.20;;;;;;;;;;4131360;28;20050;-65
2023/10/12 08:13:39;;;;;;;5.68;5.25;;;;;;;;;;4131534;28;20042;-64
2023/10/12 08:15:55;;;;;;;5.53;5.32;;;;;;;;;;4131386;28;20116;-64
2023/10/12 08:18:13;;;;;;;5.28;4.88;;;;;;;;;;4131317;28;20375;-64
2023/10/12 08:22:36;;;;;;;7.43;5.72;;;;;;;;;;4137888;28;20092;-64
2023/10/12 08:24:39;;;;;;;6.20;5.55;;;;;;;;;;4147322;28;20045;-64
2023/10/12 08:28:55;;;;;;;5.03;4.82;;;;;;;;;;4147597;28;20042;-64
2023/10/12 08:31:00;;;;;;;5.25;4.78;;;;;;;;;;4150707;28;20085;-63
2023/10/12 08:33:14;;;;;;;4.28;4.13;;;;;;;;;;4164208;28;20528;-65
2023/10/12 08:37:38;;;;;;;6.63;5.72;;;;;;;;;;4151816;28;20038;-63
2023/10/12 08:39:49;;;;;;;5.70;5.35;;;;;;;;;;4150550;28;20034;-65
2023/10/12 08:42:19;;;;;;;5.43;4.93;;;;;;;;;;4150750;28;20038;-63
2023/10/12 08:44:19;;;;;;;4.95;4.75;;;;;;;;;;4150632;28;20092;-65
2023/10/12 08:48:53;;;;;;;5.45;4.97;;;;;;;;;;4150808;28;20049;-64
2023/10/12 08:51:08;;;;;;;5.25;5.03;;;;;;;;;;4150698;28;20372;-64
2023/10/12 08:53:13;;;;;;;5.57;5.07;;;;;;;;;;4150565;28;20034;-64
2023/10/12 08:55:15;;;;;;;4.93;4.53;;;;;;;;;;4150528;28;20038;-63
2023/10/12 08:57:32;;;;;;;4.20;4.00;;;;;;;;;;4150628;28;20096;-64
2023/10/12 08:59:38;;;;;;;4.95;4.65;;;;;;;;;;4150563;28;20038;-64
2023/10/12 09:01:41;;;;;;;4.95;4.28;;;;;;;;;;4150216;28;20375;-63
2023/10/12 09:03:44;;;;;;;4.18;3.78;;;;;;;;;;4150090;28;20399;-64
2023/10/12 09:05:51;;;;;;;3.88;3.75;;;;;;;;;;4150317;28;20040;-63
2023/10/12 09:10:36;;;;;;;3.67;3.35;;;;;;;;;;4134390;28;20465;-66
2023/10/12 09:12:40;;;;;;;3.92;3.83;;;;;;;;;;4150151;28;20045;-64
2023/10/12 09:14:43;;;;;;;4.28;3.88;;;;;;;;;;4150159;28;20038;-64
2023/10/12 09:16:53;;;;;;;9.48;4.57;;;;;;;;;;4150189;28;20117;-63
2023/10/12 09:18:59;;;;;;;4.07;3.75;;;;;;;;;;4157501;28;20468;-64
2023/10/12 09:23:11;;;;;;;4.25;3.95;;;;;;;;;;4166429;28;20053;-65
2023/10/12 09:25:49;;;;;;;4.55;4.05;;;;;;;;;;4162467;28;20462;-65
2023/10/12 09:27:36;;;;;;;4.53;4.25;;;;;;;;;;4149899;28;20109;-63
2023/10/12 09:29:57;;;;;;;3.78;3.47;;;;;;;;;;4150020;28;20070;-63
2023/10/12 09:36:26;;;;;;;4.85;3.42;;;;;;;;;;4149800;28;20075;-64
2023/10/12 09:38:31;;;;;;;3.65;3.42;;;;;;;;;;4149695;28;20046;-64
2023/10/12 09:40:39;;;;;;;4.28;4.07;;;;;;;;;;4150000;28;20057;-64
2023/10/12 09:42:41;;;;;;;3.67;3.47;;;;;;;;;;4149723;28;20088;-65
2023/10/12 09:44:45;;;;;;;5.18;3.20;;;;;;;;;;4149212;28;20060;-64
2023/10/12 09:46:47;;;;;;;3.90;3.60;;;;;;;;;;4148961;28;20045;-63
2023/10/12 09:48:50;;;;;;;3.20;3.10;;;;;;;;;;4149816;28;20054;-65
2023/10/12 09:50:55;;;;;;;3.92;3.72;;;;;;;;;;4149695;28;20053;-65
2023/10/12 09:52:57;;;;;;;8.15;3.45;;;;;;;;;;4149844;28;20049;-64
2023/10/12 09:55:14;;;;;;;3.38;2.88;;;;;;;;;;4149563;28;20045;-64
2023/10/12 09:57:26;;;;;;;2.92;2.83;;;;;;;;;;4149509;28;20116;-64
2023/10/12 09:59:29;;;;;;;2.83;2.63;;;;;;;;;;4149562;28;20046;-65
2023/10/12 10:03:47;;;;;;;7.75;3.00;;;;;;;;;;4143033;28;20057;-64
2023/10/12 10:05:52;;;;;;;4.97;3.63;;;;;;;;;;4141231;28;20053;-64
2023/10/12 10:07:57;;;;;;;2.33;2.10;;;;;;;;;;4141559;28;20093;-64
2023/10/12 10:10:05;;;;;;;3.10;2.78;;;;;;;;;;4138659;28;20053;-71
2023/10/12 10:12:10;;;;;;;4.60;2.72;;;;;;;;;;4141247;28;20076;-72
2023/10/12 10:14:20;;;;;;;2.65;2.47;;;;;;;;;;4141186;28;20430;-72
2023/10/12 10:16:22;;;;;;;2.05;1.90;;;;;;;;;;4141339;28;20041;-71
2023/10/12 10:18:27;;;;;;;2.55;2.08;;;;;;;;;;4139691;28;20130;-71
2023/10/12 10:22:33;;;;;;;2.78;2.53;;;;;;;;;;4147364;28;20049;-71
2023/10/12 10:24:35;;;;;;;2.78;2.42;;;;;;;;;;4149170;28;20506;-71
2023/10/12 10:26:37;;;;;;;2.20;2.05;;;;;;;;;;4147707;28;20042;-71
2023/10/12 10:28:38;;;;;;;;;;;;;;;;;;4144613;28;20443;-72
2023/10/12 10:30:41;;;;;;;1.90;1.77;;;;;;;;;;4142901;28;19979;-71
2023/10/12 10:32:45;;;;;;;2.03;1.50;;;;;;;;;;4142421;28;20557;-71
2023/10/12 10:34:47;;;;;;;2.95;2.75;;;;;;;;;;4137557;28;20061;-71
2023/10/12 10:36:53;;;;;;;3.75;1.75;;;;;;;;;;4141804;28;20069;-71
2023/10/12 10:38:55;;;;;;;1.92;1.83;;;;;;;;;;4144942;28;20034;-71
2023/10/12 10:41:05;;;;;;;1.85;1.75;;;;;;;;;;4140288;28;20061;-71
2023/10/12 10:43:14;;;;;;;4.40;1.73;;;;;;;;;;4148653;28;20132;-72
2023/10/12 10:45:16;;;;;;;1.90;1.80;;;;;;;;;;4143701;28;20330;-71
2023/10/12 10:47:21;;;;;;;;;;;;;;;;;;4138888;28;20050;-71
2023/10/12 10:49:28;;;;;;;3.17;1.83;;;;;;;;;;4143609;28;19921;-71
2023/10/12 10:51:40;;;;;;;;;;;;;;;;;;4149051;28;20045;-71
2023/10/12 10:53:42;;;;;;;2.28;2.13;;;;;;;;;;4143843;28;20432;-71
2023/10/12 10:55:47;;;;;;;1.60;1.50;;;;;;;;;;4142149;28;20042;-71
2023/10/12 10:57:50;;;;;;;2.38;2.22;;;;;;;;;;4148285;28;20038;-71
2023/10/12 10:59:52;;;;;;;1.52;1.42;;;;;;;;;;4148792;28;20100;-71
2023/10/12 11:01:56;;;;;;;2.28;1.55;;;;;;;;;;4148531;28;20641;-71
2023/10/12 11:03:58;;;;;;;1.52;1.42;;;;;;;;;;4147525;28;20054;-71
2023/10/12 11:06:00;;;;;;;;;;;;;;;;;;4147381;28;20045;-72
2023/10/12 11:08:20;;;;;;;1.75;1.65;;;;;;;;;;4148671;28;19922;-71
2023/10/12 11:10:31;;;;;;;1.85;1.55;;;;;;;;;;4148393;28;20045;-71
2023/10/12 11:12:36;;;;;;;1.88;1.38;;;;;;;;;;4132181;28;20031;-71
2023/10/12 11:14:43;;;;;;;1.42;1.33;;;;;;;;;;4134622;28;20048;-71
2023/10/12 11:16:47;;;;;;;2.35;1.60;;;;;;;;;;4136486;28;20046;-70
2023/10/12 11:18:52;;;;;;;1.63;1.52;;;;;;;;;;4145507;28;20426;-71
2023/10/12 11:21:00;;;;;;;1.58;1.35;;;;;;;;;;4148268;28;20042;-71
2023/10/12 11:23:06;;;;;;;1.98;1.70;;;;;;;;;;4145312;28;20104;-71
2023/10/12 11:25:12;;;;;;;4.13;1.67;;;;;;;;;;4145269;28;20038;-71
2023/10/12 11:27:34;;;;;;;2.20;1.83;;;;;;;;;;4148262;28;20522;-71
2023/10/12 11:29:50;;;;;;;1.80;1.55;;;;;;;;;;4144549;28;20041;-71
2023/10/12 11:32:16;;;;;;;2.17;1.20;;;;;;;;;;4154943;28;20469;-71
2023/10/12 11:34:23;;;;;;;1.88;1.48;;;;;;;;;;4164444;28;20194;-71
2023/10/12 11:36:26;;;;;;;2.17;2.08;;;;;;;;;;4164473;28;20124;-71
2023/10/12 11:38:28;;;;;;;1.30;1.30;;;;;;;;;;4164120;28;20041;-71
2023/10/12 11:40:30;;;;;;;2.80;1.20;;;;;;;;;;4164228;28;20119;-70
2023/10/12 11:42:31;;;;;;;;;;;;;;;;;;4163592;28;20037;-70
2023/10/12 11:44:35;;;;;;;4.68;2.15;;;;;;;;;;4154747;28;19921;-71
2023/10/12 11:46:41;;;;;;;2.03;1.50;;;;;;;;;;4145365;28;20096;-70
2023/10/12 11:48:43;;;;;;;3.70;1.73;;;;;;;;;;4147695;28;20102;-70
2023/10/12 11:50:48;;;;;;;2.60;1.17;;;;;;;;;;4146286;28;20054;-70
2023/10/12 11:52:50;;;;;;;1.67;1.40;;;;;;;;;;4139102;28;20050;-71
2023/10/12 11:54:52;;;;;;;4.97;1.38;;;;;;;;;;4145690;28;20052;-71
2023/10/12 11:56:54;;;;;;;4.53;1.52;;;;;;;;;;4146762;28;20578;-71
2023/10/12 11:58:57;;;;;;;1.98;1.15;;;;;;;;;;4147992;28;20444;-71
2023/10/12 12:01:00;;;;;;;2.42;1.58;;;;;;;;;;4146914;28;20052;-71
2023/10/12 12:03:03;;;;;;;1.45;1.35;;;;;;;;;;4145564;28;20049;-71
2023/10/12 12:05:05;;;;;;;3.58;1.10;;;;;;;;;;4139598;28;20060;-70
2023/10/12 12:07:13;;;;;;;1.63;1.52;;;;;;;;;;4147027;28;20685;-71
2023/10/12 12:09:17;;;;;;;1.98;1.30;;;;;;;;;;4146409;28;20747;-69
2023/10/12 12:11:19;;;;;;;3.75;1.30;;;;;;;;;;4147548;28;20758;-71
2023/10/12 12:13:21;;;;;;;1.20;1.10;;;;;;;;;;4147506;28;20038;-71
2023/10/12 12:15:24;;;;;;;;;;;;;;;;;;4147218;28;20064;-70
2023/10/12 12:17:26;;;;;;;3.35;1.00;;;;;;;;;;4146775;28;19921;-70
2023/10/12 12:19:33;;;;;;;1.90;1.10;;;;;;;;;;4147190;28;20034;-71
2023/10/12 12:21:35;;;;;;;1.70;1.10;;;;;;;;;;4147041;28;20506;-70
2023/10/12 12:23:40;;;;;;;1.25;1.10;;;;;;;;;;4145138;28;20046;-71
2023/10/12 12:25:42;;;;;;;1.20;1.05;;;;;;;;;;4142407;28;20044;-71
2023/10/12 12:27:48;;;;;;;;;;;;;;;;;;4146757;28;20525;-70
2023/10/12 12:29:49;;;;;;;0.80;0.80;;;;;;;;;;4143645;28;19930;-69
2023/10/12 12:31:57;;;;;;;1.30;0.95;;;;;;;;;;4140632;28;20064;-70
2023/10/12 12:34:01;;;;;;;3.97;1.10;;;;;;;;;;4143464;28;20037;-62
2023/10/12 12:36:09;;;;;;;1.65;1.10;;;;;;;;;;4140197;28;20061;-62
2023/10/12 12:38:28;;;;;;;1.02;1.00;;;;;;;;;;4142022;28;20034;-63
2023/10/12 12:40:30;;;;;;;1.48;1.38;;;;;;;;;;4141472;28;20037;-62
2023/10/12 12:42:32;;;;;;;1.50;1.10;;;;;;;;;;4145162;28;20045;-62
2023/10/12 12:44:34;;;;;;;2.78;1.10;;;;;;;;;;4143823;28;20104;-63
2023/10/12 12:46:37;;;;;;;2.65;1.35;;;;;;;;;;4142272;28;20074;-63
2023/10/12 12:48:39;;;;;;;1.27;1.20;;;;;;;;;;4141608;28;20050;-62
2023/10/12 12:50:43;;;;;;;2.60;0.90;;;;;;;;;;4140806;28;20053;-62
2023/10/12 12:52:46;;;;;;;1.15;0.82;;;;;;;;;;4146538;28;20410;-63
2023/10/12 12:54:51;;;;;;;1.10;1.00;;;;;;;;;;4145375;28;20068;-63
2023/10/12 12:56:53;;;;;;;1.15;0.90;;;;;;;;;;4147238;28;20422;-63
2023/10/12 12:58:55;;;;;;;1.17;0.80;;;;;;;;;;4145910;28;20117;-63
2023/10/12 13:00:56;;;;;;;5.70;0.88;;;;;;;;;;4139884;28;20038;-63
2023/10/12 13:03:00;;;;;;;1.35;0.80;;;;;;;;;;4142663;28;20062;-63
2023/10/12 13:05:07;;;;;;;5.38;0.90;;;;;;;;;;4145906;28;20562;-63
2023/10/12 13:07:09;;;;;;;0.90;0.90;;;;;;;;;;4137728;28;20081;-63
2023/10/12 13:09:28;;;;;;;;;;;;;;;;;;4145308;28;20444;-63
2023/10/12 13:11:30;;;;;;;3.47;1.00;;;;;;;;;;4145393;28;19980;-63
2023/10/12 13:13:33;;;;;;;4.13;0.80;;;;;;;;;;4147576;28;20045;-63
2023/10/12 13:15:41;;;;;;;2.28;0.90;;;;;;;;;;4145828;28;20034;-63
2023/10/12 13:17:43;;;;;;;6.70;0.90;;;;;;;;;;4137747;28;20064;-63
2023/10/12 13:19:48;;;;;;;2.88;1.00;;;;;;;;;;4146344;28;20498;-63
2023/10/12 13:21:52;;;;;;;1.88;0.90;;;;;;;;;;4149801;28;20046;-63
2023/10/12 13:23:54;;;;;;;1.00;0.80;;;;;;;;;;4150264;28;20136;-63
2023/10/12 13:25:56;;;;;;;2.28;0.82;;;;;;;;;;4150007;28;20105;-63
2023/10/12 13:27:57;;;;;;;1.02;0.80;;;;;;;;;;4150036;28;20044;-63
2023/10/12 13:30:09;;;;;;;1.92;0.70;;;;;;;;;;4145784;28;20097;-63
2023/10/12 13:32:12;;;;;;;1.45;0.77;;;;;;;;;;4149458;28;20084;-63
2023/10/12 13:34:17;;;;;;;1.13;0.90;;;;;;;;;;4150233;28;20038;-63
2023/10/12 13:36:20;;;;;;;1.13;0.80;;;;;;;;;;4149458;28;20522;-63
2023/10/12 13:38:22;;;;;;;1.80;0.80;;;;;;;;;;4138535;28;20040;-63
2023/10/12 13:40:25;;;;;;;;;;;;;;;;;;4148237;28;20038;-63
2023/10/12 13:42:28;;;;;;;2.45;0.90;;;;;;;;;;4147849;28;19929;-63
2023/10/12 13:44:30;;;;;;;2.10;0.90;;;;;;;;;;4147934;28;20054;-63
2023/10/12 13:46:34;;;;;;;4.63;1.13;;;;;;;;;;4148133;28;20045;-63
2023/10/12 13:48:40;;;;;;;4.65;0.90;;;;;;;;;;4147673;28;20124;-63
2023/10/12 13:50:50;;;;;;;2.88;0.70;;;;;;;;;;4148251;28;20070;-63
2023/10/12 13:52:53;;;;;;;1.00;0.80;;;;;;;;;;4147959;28;20520;-63
2023/10/12 13:54:57;;;;;;;3.90;0.90;;;;;;;;;;4144056;28;20394;-63